createdAt,value
2023-01-19T00:00:32.608Z,100872.53
2023-01-19T00:02:59.678Z,100862.78
2023-01-19T00:05:26.474Z,100865.47
2023-01-19T00:07:53.120Z,100863.53
2023-01-19T00:10:20.257Z,100863.78
2023-01-19T00:12:47.044Z,100861.94
2023-01-19T00:15:13.718Z,100864.50
2023-01-19T00:17:41.274Z,100857.41
2023-01-19T00:20:09.851Z,100843.06
2023-01-19T00:22:36.612Z,100843.91
2023-01-19T00:25:03.831Z,100845.63
2023-01-19T00:27:34.954Z,100849.28
2023-01-19T00:30:02.182Z,100841.13
2023-01-19T00:32:29.109Z,100842.00
2023-01-19T00:34:55.836Z,100853.56
2023-01-19T00:37:22.594Z,100848.22
2023-01-19T00:39:49.461Z,100846.47
2023-01-19T00:42:34.742Z,100846.59
2023-01-19T00:45:03.052Z,100843.91
2023-01-19T00:47:29.934Z,100847.59
2023-01-19T00:49:56.558Z,100842.22
2023-01-19T00:52:23.395Z,100839.56
2023-01-19T00:54:50.335Z,100842.34
2023-01-19T00:57:19.185Z,100837.06
2023-01-19T00:59:46.174Z,100834.50
2023-01-19T01:02:13.581Z,100827.44
2023-01-19T01:04:40.637Z,100834.72
2023-01-19T01:07:07.748Z,100841.91
2023-01-19T01:09:34.498Z,100837.41
2023-01-19T01:12:01.200Z,100834.84
2023-01-19T01:14:28.292Z,100832.03
2023-01-19T01:16:55.600Z,100823.06
2023-01-19T01:19:22.405Z,100819.41
2023-01-19T01:21:49.282Z,100816.63
2023-01-19T01:24:16.373Z,100815.56
2023-01-19T01:26:43.016Z,100818.97
2023-01-19T01:29:10.209Z,100818.97
2023-01-19T01:31:37.186Z,100810.81
2023-01-19T01:34:04.028Z,100813.50
2023-01-19T01:36:33.585Z,100813.63
2023-01-19T01:39:00.535Z,100802.06
2023-01-19T01:41:27.599Z,100801.19
2023-01-19T01:43:58.796Z,100808.25
2023-01-19T01:46:27.750Z,100806.41
2023-01-19T01:49:17.450Z,100808.25
2023-01-19T01:51:48.451Z,100806.53
2023-01-19T01:54:23.431Z,100811.03
2023-01-19T01:56:52.646Z,100798.63
2023-01-19T01:59:40.272Z,100799.56
2023-01-19T02:02:37.624Z,100796.03
2023-01-19T02:05:30.243Z,100789.84
2023-01-19T02:09:00.136Z,100786.09
2023-01-19T02:11:46.720Z,100782.44
2023-01-19T02:14:13.509Z,100782.19
2023-01-19T02:16:40.356Z,100779.44
2023-01-19T02:19:13.259Z,100780.06
2023-01-19T02:21:49.669Z,100770.94
2023-01-19T02:24:16.482Z,100769.88
2023-01-19T02:26:46.945Z,100766.84
2023-01-19T02:29:16.752Z,100762.25
2023-01-19T02:31:45.607Z,100757.63
2023-01-19T02:34:16.231Z,100762.63
2023-01-19T02:36:50.678Z,100760.84
2023-01-19T02:39:20.964Z,100765.25
2023-01-19T02:41:54.086Z,100762.56
2023-01-19T02:44:23.585Z,100761.69
2023-01-19T02:46:53.340Z,100769.72
2023-01-19T02:49:20.149Z,100767.16
2023-01-19T02:51:46.958Z,100776.91
2023-01-19T02:54:39.953Z,100775.19
2023-01-19T02:57:18.262Z,100770.78
2023-01-19T03:00:03.387Z,100773.59
2023-01-19T03:02:47.829Z,100772.84
2023-01-19T03:05:34.448Z,100769.31
2023-01-19T03:08:33.958Z,100764.94
2023-01-19T03:11:06.017Z,100767.81
2023-01-19T03:13:56.687Z,100771.38
2023-01-19T03:16:45.844Z,100762.47
2023-01-19T03:19:41.390Z,100758.09
2023-01-19T03:22:13.637Z,100766.13
2023-01-19T03:24:43.455Z,100767.94
2023-01-19T03:27:33.874Z,100765.38
2023-01-19T03:30:09.625Z,100767.19
2023-01-19T03:32:41.462Z,100762.91
2023-01-19T03:35:11.888Z,100757.66
2023-01-19T03:37:43.326Z,100757.78
2023-01-19T03:40:11.946Z,100755.94
2023-01-19T03:42:41.203Z,100755.09
2023-01-19T03:45:09.420Z,100748.16
2023-01-19T03:47:36.712Z,100751.78
2023-01-19T03:50:09.363Z,100747.38
2023-01-19T03:52:36.081Z,100749.34
2023-01-19T03:55:05.710Z,100749.34
2023-01-19T03:57:32.724Z,100743.13
2023-01-19T03:59:59.471Z,100747.63
2023-01-19T04:02:26.266Z,100744.22
2023-01-19T04:04:53.102Z,100741.53
2023-01-19T04:07:19.917Z,100742.47
2023-01-19T04:09:46.632Z,100739.06
2023-01-19T04:12:13.471Z,100733.72
2023-01-19T04:14:40.172Z,100733.72
2023-01-19T04:17:06.897Z,100733.06
2023-01-19T04:19:33.670Z,100732.34
2023-01-19T04:22:00.779Z,100736.09
2023-01-19T04:24:28.091Z,100739.97
2023-01-19T04:26:54.781Z,100733.84
2023-01-19T04:29:21.554Z,100733.09
2023-01-19T04:31:48.401Z,100737.59
2023-01-19T04:34:15.109Z,100743.94
2023-01-19T04:36:41.971Z,100735.91
2023-01-19T04:39:09.243Z,100737.69
2023-01-19T04:41:36.022Z,100747.69
2023-01-19T04:44:02.827Z,100746.91
2023-01-19T04:46:29.685Z,100741.78
2023-01-19T04:48:56.392Z,100746.59
2023-01-19T04:51:23.201Z,100730.75
2023-01-19T04:53:49.972Z,100736.34
2023-01-19T04:56:16.677Z,100735.59
2023-01-19T04:58:43.429Z,100730.66
2023-01-19T05:01:10.292Z,100740.63
2023-01-19T05:03:37.109Z,100742.00
2023-01-19T05:06:04.049Z,100732.69
2023-01-19T05:08:31.128Z,100743.63
2023-01-19T05:10:58.211Z,100733.97
2023-01-19T05:13:24.958Z,100743.06
2023-01-19T05:15:51.726Z,100739.78
2023-01-19T05:18:18.654Z,100733.03
2023-01-19T05:20:45.524Z,100733.25
2023-01-19T05:23:12.428Z,100732.59
2023-01-19T05:25:39.195Z,100738.16
2023-01-19T05:28:05.938Z,100723.06
2023-01-19T05:30:32.715Z,100731.09
2023-01-19T05:32:59.861Z,100730.44
2023-01-19T05:35:35.695Z,100739.44
2023-01-19T05:38:03.262Z,100733.31
2023-01-19T05:40:30.105Z,100731.59
2023-01-19T05:43:00.995Z,100730.53
2023-01-19T05:45:28.575Z,100731.41
2023-01-19T05:47:55.343Z,100736.53
2023-01-19T05:50:22.005Z,100739.94
2023-01-19T05:52:48.933Z,100741.00
2023-01-19T05:55:16.678Z,100750.88
2023-01-19T05:57:43.542Z,100736.53
2023-01-19T06:00:11.103Z,100743.78
2023-01-19T06:02:37.886Z,100748.50
2023-01-19T06:05:05.067Z,100761.00
2023-01-19T06:07:32.368Z,100763.06
2023-01-19T06:09:59.341Z,100762.38
2023-01-19T06:12:26.115Z,100764.44
2023-01-19T06:14:52.948Z,100762.72
2023-01-19T06:17:20.459Z,100759.94
2023-01-19T06:19:47.114Z,100752.56
2023-01-19T06:22:14.170Z,100748.81
2023-01-19T06:24:40.901Z,100755.66
2023-01-19T06:27:07.640Z,100757.16
2023-01-19T06:29:34.407Z,100765.00
2023-01-19T06:32:01.189Z,100765.41
2023-01-19T06:34:29.079Z,100773.16
2023-01-19T06:36:59.163Z,100769.09
2023-01-19T06:39:25.956Z,100774.00
2023-01-19T06:41:52.627Z,100779.91
2023-01-19T06:44:19.499Z,100768.88
2023-01-19T06:46:46.598Z,100778.50
2023-01-19T06:49:13.275Z,100780.00
2023-01-19T06:51:40.112Z,100788.59
2023-01-19T06:54:07.017Z,100784.97
2023-01-19T06:56:33.683Z,100792.75
2023-01-19T06:59:00.850Z,100792.53
2023-01-19T07:01:27.703Z,100797.78
2023-01-19T07:03:54.614Z,100795.75
2023-01-19T07:06:21.384Z,100789.34
2023-01-19T07:08:48.126Z,100794.47
2023-01-19T07:11:25.690Z,100791.78
2023-01-19T07:13:59.053Z,100792.53
2023-01-19T07:16:26.165Z,100789.84
2023-01-19T07:18:53.188Z,100792.41
2023-01-19T07:21:20.188Z,100800.44
2023-01-19T07:23:54.099Z,100810.84
2023-01-19T07:26:22.081Z,100811.59
2023-01-19T07:28:49.048Z,100805.06
2023-01-19T07:31:16.418Z,100811.06
2023-01-19T07:33:43.396Z,100809.00
2023-01-19T07:36:10.437Z,100804.19
2023-01-19T07:38:37.086Z,100821.66
2023-01-19T07:41:05.620Z,100817.66
2023-01-19T07:43:32.888Z,100822.81
2023-01-19T07:46:01.546Z,100832.44
2023-01-19T07:48:29.249Z,100830.53
2023-01-19T07:51:05.877Z,100838.47
2023-01-19T07:53:33.093Z,100833.09
2023-01-19T07:56:00.146Z,100838.22
2023-01-19T07:58:27.662Z,100831.03
2023-01-19T08:00:54.871Z,100826.66
2023-01-19T08:03:21.605Z,100830.31
2023-01-19T08:05:54.668Z,100837.38
2023-01-19T08:08:21.657Z,100829.25
2023-01-19T08:10:52.352Z,100834.47
2023-01-19T08:13:19.325Z,100837.16
2023-01-19T08:15:50.646Z,100839.94
2023-01-19T08:18:17.928Z,100847.00
2023-01-19T08:20:44.696Z,100845.19
2023-01-19T08:23:11.835Z,100845.19
2023-01-19T08:25:45.321Z,100846.91
2023-01-19T08:28:14.736Z,100857.63
2023-01-19T08:30:44.385Z,100857.72
2023-01-19T08:33:12.637Z,100862.22
2023-01-19T08:35:47.520Z,100866.63
2023-01-19T08:38:14.264Z,100875.41
2023-01-19T08:40:42.158Z,100876.06
2023-01-19T08:43:11.294Z,100878.63
2023-01-19T08:45:42.563Z,100878.41
2023-01-19T08:48:10.009Z,100880.75
2023-01-19T08:50:36.753Z,100888.59
2023-01-19T08:53:07.202Z,100889.19
2023-01-19T08:55:36.216Z,100889.09
2023-01-19T08:58:04.652Z,100888.97
2023-01-19T09:00:33.702Z,100898.63
2023-01-19T09:03:04.292Z,100905.59
2023-01-19T09:05:35.789Z,100903.69
2023-01-19T09:08:06.733Z,100895.41
2023-01-19T09:10:36.257Z,100895.19
2023-01-19T09:13:08.577Z,100895.06
2023-01-19T09:15:37.847Z,100900.19
2023-01-19T09:18:07.327Z,100907.16
2023-01-19T09:20:36.271Z,100907.94
2023-01-19T09:23:03.692Z,100910.50
2023-01-19T09:25:31.319Z,100906.94
2023-01-19T09:28:00.388Z,100917.03
2023-01-19T09:30:28.283Z,100911.25
2023-01-19T09:32:55.111Z,100916.09
2023-01-19T09:35:21.777Z,100920.72
2023-01-19T09:37:48.821Z,100924.59
2023-01-19T09:40:18.787Z,100930.06
2023-01-19T09:42:53.682Z,100930.47
2023-01-19T09:45:31.493Z,100930.81
2023-01-19T09:48:00.661Z,100928.47
2023-01-19T09:50:41.469Z,100936.81
2023-01-19T09:53:33.565Z,100938.63
2023-01-19T09:56:00.233Z,100944.97
2023-01-19T09:58:27.115Z,100952.25
2023-01-19T10:01:03.855Z,100950.31
2023-01-19T10:03:31.993Z,100951.19
2023-01-19T10:06:03.748Z,100961.47
2023-01-19T10:08:39.737Z,100953.31
2023-01-19T10:11:22.900Z,100971.78
2023-01-19T10:13:51.975Z,100981.31
2023-01-19T10:17:12.999Z,100983.56
2023-01-19T10:19:48.537Z,100984.22
2023-01-19T10:22:23.683Z,100992.97
2023-01-19T10:24:57.321Z,100985.91
2023-01-19T10:27:30.077Z,100984.09
2023-01-19T10:29:57.926Z,100998.22
2023-01-19T10:32:32.120Z,101006.06
2023-01-19T10:34:59.996Z,100999.72
2023-01-19T10:37:32.626Z,100994.16
2023-01-19T10:40:03.678Z,101002.97
2023-01-19T10:42:30.942Z,101000.91
2023-01-19T10:44:57.972Z,101013.13
2023-01-19T10:47:32.689Z,101007.34
2023-01-19T10:49:59.542Z,101011.91
2023-01-19T10:52:36.976Z,101021.47
2023-01-19T10:55:07.032Z,101019.03
2023-01-19T10:57:40.952Z,101017.25
2023-01-19T11:00:32.595Z,101022.59
2023-01-19T11:03:00.234Z,101031.53
2023-01-19T11:05:29.951Z,101026.97
2023-01-19T11:07:57.025Z,101030.66
2023-01-19T11:10:30.580Z,101037.75
2023-01-19T11:13:02.005Z,101044.09
2023-01-19T11:15:36.049Z,101046.41
2023-01-19T11:18:07.449Z,101038.91
2023-01-19T11:20:55.643Z,101046.09
2023-01-19T11:23:42.025Z,101045.91
2023-01-19T11:26:15.976Z,101045.41
2023-01-19T11:28:48.051Z,101053.69
2023-01-19T11:31:14.896Z,101053.03
2023-01-19T11:33:50.800Z,101056.81
2023-01-19T11:36:21.301Z,101053.41
2023-01-19T11:38:54.409Z,101062.31
2023-01-19T11:41:22.858Z,101051.56
2023-01-19T11:43:53.660Z,101060.25
2023-01-19T11:46:23.250Z,101055.50
2023-01-19T11:49:01.193Z,101066.88
2023-01-19T11:51:37.646Z,101064.19
2023-01-19T11:54:17.870Z,101066.88
2023-01-19T11:56:47.607Z,101064.19
2023-01-19T11:59:14.916Z,101067.84
2023-01-19T12:01:49.468Z,101065.16
2023-01-19T12:04:30.353Z,101074.94
2023-01-19T12:07:00.313Z,101068.59
2023-01-19T12:09:29.131Z,101068.38
2023-01-19T12:12:04.509Z,101067.91
2023-01-19T12:15:04.963Z,101073.03
2023-01-19T12:17:48.721Z,101063.66
2023-01-19T12:20:18.574Z,101068.84
2023-01-19T12:22:59.704Z,101065.06
2023-01-19T12:25:42.284Z,101063.81
2023-01-19T12:28:14.373Z,101063.63
2023-01-19T12:30:41.341Z,101069.72
2023-01-19T12:33:26.537Z,101073.16
2023-01-19T12:36:03.893Z,101086.25
2023-01-19T12:38:42.364Z,101079.78
2023-01-19T12:41:36.960Z,101086.66
2023-01-19T12:44:12.866Z,101093.50
2023-01-19T12:47:06.512Z,101095.09
2023-01-19T12:49:39.238Z,101100.13
2023-01-19T12:52:29.000Z,101089.97
2023-01-19T12:55:15.865Z,101093.31
2023-01-19T12:57:49.298Z,101095.63
2023-01-19T13:00:21.895Z,101096.25
2023-01-19T13:02:50.758Z,101091.28
2023-01-19T13:05:45.271Z,101089.69
2023-01-19T13:08:12.736Z,101092.28
2023-01-19T13:11:09.743Z,101093.16
2023-01-19T13:13:45.262Z,101086.31
2023-01-19T13:16:21.688Z,101089.00
2023-01-19T13:18:55.032Z,101090.09
2023-01-19T13:21:35.359Z,101084.13
2023-01-19T13:24:04.901Z,101087.16
2023-01-19T13:26:33.210Z,101088.13
2023-01-19T13:29:36.927Z,101089.97
2023-01-19T13:32:18.453Z,101083.75
2023-01-19T13:34:51.823Z,101089.00
2023-01-19T13:37:29.482Z,101082.66
2023-01-19T13:39:57.085Z,101078.97
2023-01-19T13:42:37.822Z,101086.06
2023-01-19T13:45:30.102Z,101090.59
2023-01-19T13:47:59.972Z,101092.28
2023-01-19T13:50:29.349Z,101094.00
2023-01-19T13:52:59.053Z,101094.00
2023-01-19T13:55:28.294Z,101094.78
2023-01-19T13:57:55.441Z,101102.72
2023-01-19T14:00:25.196Z,101105.16
2023-01-19T14:03:01.244Z,101108.56
2023-01-19T14:05:33.480Z,101111.06
2023-01-19T14:08:11.128Z,101104.78
2023-01-19T14:10:56.765Z,101111.06
2023-01-19T14:13:46.419Z,101112.03
2023-01-19T14:16:17.150Z,101109.31
2023-01-19T14:18:43.975Z,101111.78
2023-01-19T14:21:13.872Z,101114.34
2023-01-19T14:23:48.588Z,101116.78
2023-01-19T14:26:46.744Z,101111.31
2023-01-19T14:29:22.625Z,101120.09
2023-01-19T14:32:09.284Z,101126.56
2023-01-19T14:35:04.630Z,101125.59
2023-01-19T14:37:34.937Z,101124.84
2023-01-19T14:40:08.286Z,101124.97
2023-01-19T14:42:42.425Z,101124.84
2023-01-19T14:45:35.272Z,101132.84
2023-01-19T14:48:17.811Z,101142.59
2023-01-19T14:50:57.647Z,101142.59
2023-01-19T14:53:30.219Z,101157.06
2023-01-19T14:56:05.805Z,101167.06
2023-01-19T14:58:35.216Z,101169.03
2023-01-19T15:01:02.857Z,101179.81
2023-01-19T15:03:44.768Z,101182.72
2023-01-19T15:06:15.907Z,101193.84
2023-01-19T15:08:44.424Z,101198.38
2023-01-19T15:11:32.668Z,101192.13
2023-01-19T15:14:00.038Z,101205.47
2023-01-19T15:16:29.234Z,101196.66
2023-01-19T15:18:56.145Z,101194.94
2023-01-19T15:21:23.818Z,101195.06
2023-01-19T15:23:50.631Z,101200.56
2023-01-19T15:26:23.163Z,101213.06
2023-01-19T15:28:50.780Z,101207.78
2023-01-19T15:31:22.967Z,101212.41
2023-01-19T15:33:50.110Z,101220.59
2023-01-19T15:36:22.087Z,101227.97
2023-01-19T15:38:51.261Z,101243.34
2023-01-19T15:41:30.143Z,101240.66
2023-01-19T15:43:57.573Z,101246.88
2023-01-19T15:46:25.896Z,101253.38
2023-01-19T15:48:54.085Z,101252.50
2023-01-19T15:51:23.430Z,101254.47
2023-01-19T15:53:50.410Z,101247.34
2023-01-19T15:56:29.258Z,101250.06
2023-01-19T15:58:58.007Z,101254.59
2023-01-19T16:01:34.203Z,101264.59
2023-01-19T16:04:07.897Z,101269.34
2023-01-19T16:06:34.844Z,101272.38
2023-01-19T16:09:02.022Z,101280.78
2023-01-19T16:11:31.345Z,101288.97
2023-01-19T16:13:58.866Z,101293.72
2023-01-19T16:16:28.184Z,101302.88
2023-01-19T16:18:56.175Z,101302.25
2023-01-19T16:21:23.978Z,101297.19
2023-01-19T16:23:55.743Z,101294.84
2023-01-19T16:26:32.405Z,101295.06
2023-01-19T16:29:01.303Z,101292.50
2023-01-19T16:31:28.878Z,101293.59
2023-01-19T16:33:55.806Z,101298.31
2023-01-19T16:36:27.173Z,101316.63
2023-01-19T16:38:54.591Z,101322.41
2023-01-19T16:41:21.676Z,101333.75
2023-01-19T16:43:55.926Z,101342.22
2023-01-19T16:46:26.156Z,101350.63
2023-01-19T16:48:53.236Z,101348.03
2023-01-19T16:51:20.027Z,101347.19
2023-01-19T16:53:49.087Z,101340.72
2023-01-19T16:56:15.868Z,101340.72
2023-01-19T16:58:42.750Z,101339.13
2023-01-19T17:01:12.643Z,101348.38
2023-01-19T17:03:39.876Z,101352.03
2023-01-19T17:06:08.669Z,101363.00
2023-01-19T17:08:36.608Z,101369.56
2023-01-19T17:11:13.433Z,101373.41
2023-01-19T17:13:40.285Z,101378.25
2023-01-19T17:16:07.458Z,101382.94
2023-01-19T17:18:37.912Z,101398.22
2023-01-19T17:21:09.987Z,101400.91
2023-01-19T17:23:37.635Z,101398.31
2023-01-19T17:26:05.209Z,101400.06
2023-01-19T17:28:32.025Z,101399.28
2023-01-19T17:31:05.902Z,101395.75
2023-01-19T17:33:33.486Z,101393.38
2023-01-19T17:36:06.049Z,101395.41
2023-01-19T17:38:32.794Z,101403.69
2023-01-19T17:40:59.895Z,101420.97
2023-01-19T17:43:26.812Z,101434.78
2023-01-19T17:45:54.655Z,101441.44
2023-01-19T17:48:21.738Z,101447.00
2023-01-19T17:50:48.422Z,101453.66
2023-01-19T17:53:15.085Z,101456.34
2023-01-19T17:55:42.117Z,101461.59
2023-01-19T17:58:08.772Z,101465.91
2023-01-19T18:00:35.548Z,101463.97
2023-01-19T18:03:02.909Z,101458.59
2023-01-19T18:05:29.635Z,101451.53
2023-01-19T18:07:56.298Z,101449.03
2023-01-19T18:10:23.347Z,101449.22
2023-01-19T18:12:50.091Z,101459.34
2023-01-19T18:15:17.078Z,101468.53
2023-01-19T18:17:43.982Z,101471.44
2023-01-19T18:20:11.595Z,101483.22
2023-01-19T18:22:38.495Z,101487.91
2023-01-19T18:25:05.663Z,101488.97
2023-01-19T18:27:32.413Z,101488.13
2023-01-19T18:29:59.062Z,101493.38
2023-01-19T18:32:27.210Z,101496.94
2023-01-19T18:34:54.329Z,101488.97
2023-01-19T18:37:21.082Z,101491.66
2023-01-19T18:39:48.038Z,101483.81
2023-01-19T18:42:14.929Z,101482.28
2023-01-19T18:44:41.633Z,101491.50
2023-01-19T18:47:08.403Z,101489.97
2023-01-19T18:49:35.044Z,101492.84
2023-01-19T18:52:03.903Z,101500.22
2023-01-19T18:54:31.139Z,101509.25
2023-01-19T18:56:57.833Z,101514.78
2023-01-19T18:59:24.542Z,101518.56
2023-01-19T19:01:51.643Z,101514.13
2023-01-19T19:04:18.377Z,101511.66
2023-01-19T19:06:45.044Z,101521.59
2023-01-19T19:09:11.915Z,101516.44
2023-01-19T19:11:38.556Z,101512.97
2023-01-19T19:14:06.277Z,101507.81
2023-01-19T19:16:36.201Z,101518.63
2023-01-19T19:19:03.978Z,101511.75
2023-01-19T19:21:30.602Z,101526.09
2023-01-19T19:23:58.406Z,101531.56
2023-01-19T19:26:28.071Z,101527.25
2023-01-19T19:28:54.981Z,101538.94
2023-01-19T19:31:23.389Z,101545.16
2023-01-19T19:33:51.385Z,101547.09
2023-01-19T19:36:20.042Z,101549.75
2023-01-19T19:38:47.978Z,101541.72
2023-01-19T19:41:21.764Z,101536.53
2023-01-19T19:43:48.928Z,101532.25
2023-01-19T19:46:19.981Z,101533.28
2023-01-19T19:48:47.871Z,101539.59
2023-01-19T19:51:18.976Z,101545.06
2023-01-19T19:53:47.473Z,101544.47
2023-01-19T19:56:15.498Z,101552.78
2023-01-19T19:58:43.231Z,101547.63
2023-01-19T20:01:15.168Z,101559.38
2023-01-19T20:03:42.870Z,101570.19
2023-01-19T20:06:15.467Z,101560.44
2023-01-19T20:09:42.092Z,101556.72
2023-01-19T20:12:08.846Z,101551.44
2023-01-19T20:14:35.657Z,101558.59
2023-01-19T20:17:02.798Z,101558.69
2023-01-19T20:19:31.781Z,101562.50
2023-01-19T20:22:15.549Z,101568.91
2023-01-19T20:24:42.423Z,101576.28
2023-01-19T20:27:09.071Z,101575.50
2023-01-19T20:29:35.806Z,101574.75
2023-01-19T20:32:02.726Z,101586.41
2023-01-19T20:34:33.312Z,101590.03
2023-01-19T20:37:02.872Z,101589.19
2023-01-19T20:39:34.757Z,101591.94
2023-01-19T20:42:01.857Z,101592.03
2023-01-19T20:44:28.905Z,101599.38
2023-01-19T20:46:56.407Z,101604.06
2023-01-19T20:49:23.465Z,101607.78
2023-01-19T20:51:52.159Z,101603.28
2023-01-19T20:54:21.270Z,101606.91
2023-01-19T20:56:48.313Z,101605.28
2023-01-19T20:59:15.061Z,101620.56
2023-01-19T21:01:42.592Z,101619.81
2023-01-19T21:04:10.177Z,101612.72
2023-01-19T21:06:38.099Z,101620.84
2023-01-19T21:09:05.257Z,101618.94
2023-01-19T21:11:32.055Z,101616.34
2023-01-19T21:13:59.172Z,101621.69
2023-01-19T21:16:27.952Z,101627.25
2023-01-19T21:18:54.943Z,101630.84
2023-01-19T21:21:30.864Z,101634.56
2023-01-19T21:24:02.179Z,101644.44
2023-01-19T21:26:33.644Z,101647.81
2023-01-19T21:29:02.050Z,101640.44
2023-01-19T21:31:29.120Z,101647.44
2023-01-19T21:33:59.357Z,101651.88
2023-01-19T21:36:26.123Z,101653.50
2023-01-19T21:38:53.060Z,101656.28
2023-01-19T21:41:20.365Z,101651.88
2023-01-19T21:43:47.376Z,101660.94
2023-01-19T21:48:46.218Z,101663.88
2023-01-19T21:51:14.342Z,101660.31
2023-01-19T21:53:41.349Z,101661.25
2023-01-19T21:56:09.743Z,101669.16
2023-01-19T21:58:36.996Z,101666.47
2023-01-19T22:01:07.294Z,101673.72
2023-01-19T22:03:34.085Z,101669.28
2023-01-19T22:06:08.764Z,101669.38
2023-01-19T22:08:35.747Z,101674.06
2023-01-19T22:11:10.713Z,101679.59
2023-01-19T22:13:40.993Z,101684.78
2023-01-19T22:16:13.613Z,101685.63
2023-01-19T22:18:45.807Z,101692.72
2023-01-19T22:21:16.278Z,101690.72
2023-01-19T22:23:43.607Z,101689.78
2023-01-19T22:26:11.962Z,101695.13
2023-01-19T22:28:39.127Z,101697.91
2023-01-19T22:31:12.494Z,101696.16
2023-01-19T22:33:40.011Z,101698.06
2023-01-19T22:36:12.758Z,101692.72
2023-01-19T22:38:40.161Z,101695.41
2023-01-19T22:41:36.240Z,101702.50
2023-01-19T22:44:05.800Z,101707.94
2023-01-19T22:46:34.409Z,101702.41
2023-01-19T22:49:01.641Z,101706.97
2023-01-19T22:51:30.479Z,101708.69
2023-01-19T22:53:57.335Z,101721.25
2023-01-19T22:56:29.147Z,101726.69
2023-01-19T22:58:56.881Z,101724.16
2023-01-19T23:01:26.352Z,101720.72
2023-01-19T23:03:54.782Z,101726.06
2023-01-19T23:06:32.972Z,101721.72
2023-01-19T23:09:03.597Z,101735.88
2023-01-19T23:11:37.693Z,101733.28
2023-01-19T23:14:07.398Z,101738.66
2023-01-19T23:16:34.869Z,101743.31
2023-01-19T23:19:03.115Z,101741.75
2023-01-19T23:21:31.378Z,101739.19
2023-01-19T23:24:03.270Z,101743.63
2023-01-19T23:26:31.639Z,101752.56
2023-01-19T23:29:01.289Z,101755.06
2023-01-19T23:31:33.222Z,101759.31
2023-01-19T23:34:04.021Z,101761.19
2023-01-19T23:36:33.256Z,101756.00
2023-01-19T23:39:03.716Z,101762.16
2023-01-19T23:41:34.797Z,101763.09
2023-01-19T23:44:02.197Z,101764.03
2023-01-19T23:46:30.004Z,101772.16
2023-01-19T23:48:57.019Z,101773.19
2023-01-19T23:51:26.669Z,101773.25
2023-01-19T23:53:53.430Z,101769.72
2023-01-19T23:56:24.629Z,101763.66
2023-01-19T23:58:57.491Z,101759.34
